Česky Dansk Deutsch English Español Suomi Français Magyar Italiano Nederlands norsk Polski Português svenska Türkçe

 

Het Weer

Asmara (Ethiopia)

17:00, 3 februari 2015 (GMT)

NWNNE
WE
SWSSE
Home            
Asmara Massawa Agordat Axum Makale Tessenei / Teseney Kassala Gondar Gedaref Gizan Hodeidah Bahar Dar Combolcha Assab Port Sudan International Port Sudan Abha Mokha Khamis Mushait Sa'Ada / Sadah Debremarcos Sana'A Taiz

Om een weerknop op uw website of weblog te plaatsen, copieer onderstaande code en plak die in uw pagina. In het eerste vakje staat HTML-code, in het tweede vakje UBB-code.


Add to Google

Details

Wind speed:2 bf, 4 kn, 2.1 m/s, 4.6 miles/h, 7.4 km/h
Wind direction:W, 270°
Celková viditeľnosť:Väčšia ako 10000 m, 10 km, 32800 ft, 6.2 miles
Clouds:CAVOC
Teplota:15°C, 59°F
Rosným:6°C, 43°F
Atmosférický tlak:1028 hPa, 771.1 mmHg, 30.36 inHg, 1.015 atm
Relatívna vlhkosť vzduchu:54.8 %
METAR:HHAS 031700Z 27004KT CAVOK 15/06 Q1028 NOSIG

Snelkoppelingen

Actuele weersinformatie van de hele wereld. Voeg locaties toe met het plus (+) symbool. Deze snelkoppelingen kunnen worden toegevoegd aan Google.

Lid van de Technetium groep

website free tracking
StatCounter NetStat W3C Validator

14-04-2021 07:38:37
astro.technetium.be money.technetium.be phote.technetium.be tafeltennistafel.technetium.be www.ligfiets.net